sensor_id;sensor_type;location;lat;lon;timestamp;temperature;humidity
44537;DHT22;30245;51.966;6.292;2023-09-19T00:01:08;21.70;59.30
44537;DHT22;30245;51.966;6.292;2023-09-19T00:03:34;21.70;58.90
44537;DHT22;30245;51.966;6.292;2023-09-19T00:06:03;21.70;58.80
44537;DHT22;30245;51.966;6.292;2023-09-19T00:08:30;21.70;59.00
44537;DHT22;30245;51.966;6.292;2023-09-19T00:10:56;21.60;59.20
44537;DHT22;30245;51.966;6.292;2023-09-19T00:13:22;21.60;59.20
44537;DHT22;30245;51.966;6.292;2023-09-19T00:15:49;21.50;59.30
44537;DHT22;30245;51.966;6.292;2023-09-19T00:18:16;21.60;59.40
44537;DHT22;30245;51.966;6.292;2023-09-19T00:20:44;21.50;59.50
44537;DHT22;30245;51.966;6.292;2023-09-19T00:23:13;21.60;59.50
44537;DHT22;30245;51.966;6.292;2023-09-19T00:25:39;21.50;59.50
44537;DHT22;30245;51.966;6.292;2023-09-19T00:28:05;21.50;59.50
44537;DHT22;30245;51.966;6.292;2023-09-19T00:30:33;21.40;59.60
44537;DHT22;30245;51.966;6.292;2023-09-19T00:32:58;21.40;59.80
44537;DHT22;30245;51.966;6.292;2023-09-19T00:35:24;21.30;60.00
44537;DHT22;30245;51.966;6.292;2023-09-19T00:37:50;21.30;60.10
44537;DHT22;30245;51.966;6.292;2023-09-19T00:40:16;21.20;60.20
44537;DHT22;30245;51.966;6.292;2023-09-19T00:42:43;21.20;60.20
44537;DHT22;30245;51.966;6.292;2023-09-19T00:45:10;21.20;60.00
44537;DHT22;30245;51.966;6.292;2023-09-19T00:47:48;21.10;60.00
44537;DHT22;30245;51.966;6.292;2023-09-19T00:50:18;21.00;60.30
44537;DHT22;30245;51.966;6.292;2023-09-19T00:52:46;21.00;60.30
44537;DHT22;30245;51.966;6.292;2023-09-19T00:55:12;20.90;60.30
44537;DHT22;30245;51.966;6.292;2023-09-19T00:57:41;20.90;60.30
44537;DHT22;30245;51.966;6.292;2023-09-19T01:00:09;21.00;60.10
44537;DHT22;30245;51.966;6.292;2023-09-19T01:02:42;21.00;59.80
44537;DHT22;30245;51.966;6.292;2023-09-19T01:05:11;21.10;59.60
44537;DHT22;30245;51.966;6.292;2023-09-19T01:07:38;21.00;59.50
44537;DHT22;30245;51.966;6.292;2023-09-19T01:10:12;20.90;59.70
44537;DHT22;30245;51.966;6.292;2023-09-19T01:18:55;21.00;59.40
44537;DHT22;30245;51.966;6.292;2023-09-19T01:24:21;20.80;59.80
44537;DHT22;30245;51.966;6.292;2023-09-19T01:27:06;20.80;60.10
44537;DHT22;30245;51.966;6.292;2023-09-19T01:29:41;20.70;60.30
44537;DHT22;30245;51.966;6.292;2023-09-19T01:32:11;20.70;60.40
44537;DHT22;30245;51.966;6.292;2023-09-19T01:34:45;20.70;60.50
44537;DHT22;30245;51.966;6.292;2023-09-19T01:37:15;20.70;60.60
44537;DHT22;30245;51.966;6.292;2023-09-19T01:39:46;20.70;60.80
44537;DHT22;30245;51.966;6.292;2023-09-19T01:42:41;20.70;60.80
44537;DHT22;30245;51.966;6.292;2023-09-19T01:45:50;20.60;60.70
44537;DHT22;30245;51.966;6.292;2023-09-19T01:51:07;20.60;60.80
44537;DHT22;30245;51.966;6.292;2023-09-19T01:53:44;20.60;60.70
44537;DHT22;30245;51.966;6.292;2023-09-19T01:56:23;20.50;60.80
44537;DHT22;30245;51.966;6.292;2023-09-19T01:58:54;20.50;60.90
44537;DHT22;30245;51.966;6.292;2023-09-19T02:01:22;20.50;60.90
44537;DHT22;30245;51.966;6.292;2023-09-19T02:03:50;20.40;61.00
44537;DHT22;30245;51.966;6.292;2023-09-19T02:06:16;20.50;61.00
44537;DHT22;30245;51.966;6.292;2023-09-19T02:08:43;20.40;60.90
44537;DHT22;30245;51.966;6.292;2023-09-19T02:11:10;20.40;61.00
44537;DHT22;30245;51.966;6.292;2023-09-19T02:13:36;20.30;61.10
44537;DHT22;30245;51.966;6.292;2023-09-19T02:16:03;20.40;61.10
44537;DHT22;30245;51.966;6.292;2023-09-19T02:18:30;20.40;60.90
44537;DHT22;30245;51.966;6.292;2023-09-19T02:20:56;20.30;61.10
44537;DHT22;30245;51.966;6.292;2023-09-19T02:23:24;20.30;61.10
44537;DHT22;30245;51.966;6.292;2023-09-19T02:25:53;20.20;61.00
44537;DHT22;30245;51.966;6.292;2023-09-19T02:28:19;20.30;61.10
44537;DHT22;30245;51.966;6.292;2023-09-19T02:30:49;20.30;61.10
44537;DHT22;30245;51.966;6.292;2023-09-19T02:33:15;20.20;61.10
44537;DHT22;30245;51.966;6.292;2023-09-19T02:35:42;20.20;61.00
44537;DHT22;30245;51.966;6.292;2023-09-19T02:38:08;20.20;60.90
44537;DHT22;30245;51.966;6.292;2023-09-19T02:40:36;20.20;60.80
44537;DHT22;30245;51.966;6.292;2023-09-19T02:43:02;20.30;60.70
44537;DHT22;30245;51.966;6.292;2023-09-19T02:45:28;20.20;60.50
44537;DHT22;30245;51.966;6.292;2023-09-19T02:47:55;20.20;60.40
44537;DHT22;30245;51.966;6.292;2023-09-19T02:50:20;20.10;60.30
44537;DHT22;30245;51.966;6.292;2023-09-19T02:52:47;20.20;60.20
44537;DHT22;30245;51.966;6.292;2023-09-19T02:55:15;20.20;60.00
44537;DHT22;30245;51.966;6.292;2023-09-19T02:57:50;20.10;59.70
44537;DHT22;30245;51.966;6.292;2023-09-19T03:00:17;20.20;59.90
44537;DHT22;30245;51.966;6.292;2023-09-19T03:02:47;20.10;59.70
44537;DHT22;30245;51.966;6.292;2023-09-19T03:05:13;20.10;59.60
44537;DHT22;30245;51.966;6.292;2023-09-19T03:07:39;20.20;59.50
44537;DHT22;30245;51.966;6.292;2023-09-19T03:10:06;20.20;59.50
44537;DHT22;30245;51.966;6.292;2023-09-19T03:12:32;20.20;59.50
44537;DHT22;30245;51.966;6.292;2023-09-19T03:14:59;20.10;59.30
44537;DHT22;30245;51.966;6.292;2023-09-19T03:17:25;20.10;59.20
44537;DHT22;30245;51.966;6.292;2023-09-19T03:19:50;20.00;59.30
44537;DHT22;30245;51.966;6.292;2023-09-19T03:22:16;20.00;59.30
44537;DHT22;30245;51.966;6.292;2023-09-19T03:24:42;19.90;59.40
44537;DHT22;30245;51.966;6.292;2023-09-19T03:27:09;19.80;59.40
44537;DHT22;30245;51.966;6.292;2023-09-19T03:29:35;19.80;59.40
44537;DHT22;30245;51.966;6.292;2023-09-19T03:32:01;19.80;59.40
44537;DHT22;30245;51.966;6.292;2023-09-19T03:34:27;19.70;60.10
44537;DHT22;30245;51.966;6.292;2023-09-19T03:36:52;19.50;59.50
44537;DHT22;30245;51.966;6.292;2023-09-19T03:39:18;19.60;59.70
44537;DHT22;30245;51.966;6.292;2023-09-19T03:41:43;19.50;59.60
44537;DHT22;30245;51.966;6.292;2023-09-19T03:44:10;19.50;59.60
44537;DHT22;30245;51.966;6.292;2023-09-19T03:46:35;19.50;59.50
44537;DHT22;30245;51.966;6.292;2023-09-19T03:49:01;19.50;59.30
44537;DHT22;30245;51.966;6.292;2023-09-19T03:51:28;19.50;59.20
44537;DHT22;30245;51.966;6.292;2023-09-19T03:53:53;19.50;59.10
44537;DHT22;30245;51.966;6.292;2023-09-19T03:56:19;19.40;59.10
44537;DHT22;30245;51.966;6.292;2023-09-19T03:58:44;19.50;59.00
44537;DHT22;30245;51.966;6.292;2023-09-19T04:01:10;19.40;58.80
44537;DHT22;30245;51.966;6.292;2023-09-19T04:03:36;19.40;58.80
44537;DHT22;30245;51.966;6.292;2023-09-19T04:06:15;19.40;58.80
44537;DHT22;30245;51.966;6.292;2023-09-19T04:08:41;19.40;58.50
44537;DHT22;30245;51.966;6.292;2023-09-19T04:11:07;19.40;58.50
44537;DHT22;30245;51.966;6.292;2023-09-19T04:13:32;19.40;58.40
44537;DHT22;30245;51.966;6.292;2023-09-19T04:15:58;19.30;58.40
44537;DHT22;30245;51.966;6.292;2023-09-19T04:18:24;19.30;58.50
44537;DHT22;30245;51.966;6.292;2023-09-19T04:20:49;19.30;58.20
44537;DHT22;30245;51.966;6.292;2023-09-19T04:23:15;19.30;58.10
44537;DHT22;30245;51.966;6.292;2023-09-19T04:25:41;19.30;58.00
44537;DHT22;30245;51.966;6.292;2023-09-19T04:28:07;19.20;58.00
44537;DHT22;30245;51.966;6.292;2023-09-19T04:30:32;19.20;58.00
44537;DHT22;30245;51.966;6.292;2023-09-19T04:32:58;19.10;58.10
44537;DHT22;30245;51.966;6.292;2023-09-19T04:35:24;19.10;57.90
44537;DHT22;30245;51.966;6.292;2023-09-19T04:37:52;19.10;57.90
44537;DHT22;30245;51.966;6.292;2023-09-19T04:40:18;19.10;57.70
44537;DHT22;30245;51.966;6.292;2023-09-19T04:42:44;19.10;57.70
44537;DHT22;30245;51.966;6.292;2023-09-19T04:45:10;19.10;57.40
44537;DHT22;30245;51.966;6.292;2023-09-19T04:47:39;19.10;57.40
44537;DHT22;30245;51.966;6.292;2023-09-19T04:50:08;19.10;57.20
44537;DHT22;30245;51.966;6.292;2023-09-19T04:52:41;19.20;57.10
44537;DHT22;30245;51.966;6.292;2023-09-19T04:55:13;19.20;56.90
44537;DHT22;30245;51.966;6.292;2023-09-19T04:57:49;19.20;56.90
44537;DHT22;30245;51.966;6.292;2023-09-19T05:00:19;19.10;56.90
44537;DHT22;30245;51.966;6.292;2023-09-19T05:02:52;19.00;57.00
44537;DHT22;30245;51.966;6.292;2023-09-19T05:05:19;19.10;57.10
44537;DHT22;30245;51.966;6.292;2023-09-19T05:07:45;19.10;57.00
44537;DHT22;30245;51.966;6.292;2023-09-19T05:10:11;19.10;56.90
44537;DHT22;30245;51.966;6.292;2023-09-19T05:12:38;19.10;56.80
44537;DHT22;30245;51.966;6.292;2023-09-19T05:15:05;19.10;56.90
44537;DHT22;30245;51.966;6.292;2023-09-19T05:17:33;19.10;56.80
44537;DHT22;30245;51.966;6.292;2023-09-19T05:19:59;19.10;56.80
44537;DHT22;30245;51.966;6.292;2023-09-19T05:22:31;19.10;56.80
44537;DHT22;30245;51.966;6.292;2023-09-19T05:24:58;19.10;56.90
44537;DHT22;30245;51.966;6.292;2023-09-19T05:27:24;19.10;57.00
44537;DHT22;30245;51.966;6.292;2023-09-19T05:29:49;19.00;57.00
44537;DHT22;30245;51.966;6.292;2023-09-19T05:32:18;19.10;57.10
44537;DHT22;30245;51.966;6.292;2023-09-19T05:34:45;19.10;57.10
44537;DHT22;30245;51.966;6.292;2023-09-19T05:37:11;19.10;57.00
44537;DHT22;30245;51.966;6.292;2023-09-19T05:39:36;19.10;57.00
44537;DHT22;30245;51.966;6.292;2023-09-19T05:42:03;19.20;57.00
44537;DHT22;30245;51.966;6.292;2023-09-19T05:44:28;19.20;57.00
44537;DHT22;30245;51.966;6.292;2023-09-19T05:46:54;19.20;57.00
44537;DHT22;30245;51.966;6.292;2023-09-19T05:49:22;19.20;57.00
44537;DHT22;30245;51.966;6.292;2023-09-19T05:51:47;19.20;57.10
44537;DHT22;30245;51.966;6.292;2023-09-19T05:54:13;19.20;57.00
44537;DHT22;30245;51.966;6.292;2023-09-19T05:56:39;19.20;57.10
44537;DHT22;30245;51.966;6.292;2023-09-19T05:59:04;19.20;57.30
44537;DHT22;30245;51.966;6.292;2023-09-19T06:01:31;19.20;57.10
44537;DHT22;30245;51.966;6.292;2023-09-19T06:03:58;19.30;57.00
44537;DHT22;30245;51.966;6.292;2023-09-19T06:06:25;19.20;57.10
44537;DHT22;30245;51.966;6.292;2023-09-19T06:08:51;19.20;57.20
44537;DHT22;30245;51.966;6.292;2023-09-19T06:11:17;19.30;57.40
44537;DHT22;30245;51.966;6.292;2023-09-19T06:13:45;19.20;57.40
44537;DHT22;30245;51.966;6.292;2023-09-19T06:16:12;19.20;57.60
44537;DHT22;30245;51.966;6.292;2023-09-19T06:18:38;19.20;57.70
44537;DHT22;30245;51.966;6.292;2023-09-19T06:21:04;19.20;57.80
44537;DHT22;30245;51.966;6.292;2023-09-19T06:23:36;19.10;57.90
44537;DHT22;30245;51.966;6.292;2023-09-19T06:26:01;19.20;58.00
44537;DHT22;30245;51.966;6.292;2023-09-19T06:28:27;19.30;57.90
44537;DHT22;30245;51.966;6.292;2023-09-19T06:30:54;19.20;58.00
44537;DHT22;30245;51.966;6.292;2023-09-19T06:33:20;19.30;57.90
44537;DHT22;30245;51.966;6.292;2023-09-19T06:35:47;19.40;57.80
44537;DHT22;30245;51.966;6.292;2023-09-19T06:38:13;19.50;57.60
44537;DHT22;30245;51.966;6.292;2023-09-19T06:40:41;19.50;57.60
44537;DHT22;30245;51.966;6.292;2023-09-19T06:43:10;19.60;57.60
44537;DHT22;30245;51.966;6.292;2023-09-19T06:45:36;19.60;57.60
44537;DHT22;30245;51.966;6.292;2023-09-19T06:48:01;19.60;58.30
44537;DHT22;30245;51.966;6.292;2023-09-19T06:50:28;19.70;57.70
44537;DHT22;30245;51.966;6.292;2023-09-19T06:52:57;19.70;57.60
44537;DHT22;30245;51.966;6.292;2023-09-19T06:55:25;19.70;57.70
44537;DHT22;30245;51.966;6.292;2023-09-19T06:57:53;19.70;57.70
44537;DHT22;30245;51.966;6.292;2023-09-19T07:00:21;19.70;57.70
44537;DHT22;30245;51.966;6.292;2023-09-19T07:03:00;19.80;57.80
44537;DHT22;30245;51.966;6.292;2023-09-19T07:05:33;19.70;57.80
44537;DHT22;30245;51.966;6.292;2023-09-19T07:07:59;19.70;58.00
44537;DHT22;30245;51.966;6.292;2023-09-19T07:10:26;19.70;58.20
44537;DHT22;30245;51.966;6.292;2023-09-19T07:12:59;19.80;58.20
44537;DHT22;30245;51.966;6.292;2023-09-19T07:15:26;19.80;58.30
44537;DHT22;30245;51.966;6.292;2023-09-19T07:17:53;19.80;58.50
44537;DHT22;30245;51.966;6.292;2023-09-19T07:20:19;19.90;58.40
44537;DHT22;30245;51.966;6.292;2023-09-19T07:22:45;19.90;58.30
44537;DHT22;30245;51.966;6.292;2023-09-19T07:25:11;20.00;58.30
44537;DHT22;30245;51.966;6.292;2023-09-19T07:27:40;20.10;58.30
44537;DHT22;30245;51.966;6.292;2023-09-19T07:30:06;20.10;58.20
44537;DHT22;30245;51.966;6.292;2023-09-19T07:32:33;20.00;58.40
44537;DHT22;30245;51.966;6.292;2023-09-19T07:35:00;20.10;58.50
44537;DHT22;30245;51.966;6.292;2023-09-19T07:37:26;20.10;58.20
44537;DHT22;30245;51.966;6.292;2023-09-19T07:39:51;20.10;58.20
44537;DHT22;30245;51.966;6.292;2023-09-19T07:42:17;20.20;58.20
44537;DHT22;30245;51.966;6.292;2023-09-19T07:44:44;20.30;58.20
44537;DHT22;30245;51.966;6.292;2023-09-19T07:47:14;20.40;58.00
44537;DHT22;30245;51.966;6.292;2023-09-19T07:49:39;20.50;57.80
44537;DHT22;30245;51.966;6.292;2023-09-19T07:52:06;20.50;57.60
44537;DHT22;30245;51.966;6.292;2023-09-19T07:54:32;20.60;57.70
44537;DHT22;30245;51.966;6.292;2023-09-19T07:57:01;20.60;57.50
44537;DHT22;30245;51.966;6.292;2023-09-19T07:59:27;20.60;57.60
44537;DHT22;30245;51.966;6.292;2023-09-19T08:01:53;20.70;57.40
44537;DHT22;30245;51.966;6.292;2023-09-19T08:04:19;20.70;57.30
44537;DHT22;30245;51.966;6.292;2023-09-19T08:06:45;20.80;57.30
44537;DHT22;30245;51.966;6.292;2023-09-19T08:09:11;20.80;57.20
44537;DHT22;30245;51.966;6.292;2023-09-19T08:11:38;20.80;57.30
44537;DHT22;30245;51.966;6.292;2023-09-19T08:14:04;20.90;57.10
44537;DHT22;30245;51.966;6.292;2023-09-19T08:16:31;20.90;56.90
44537;DHT22;30245;51.966;6.292;2023-09-19T08:18:57;20.90;57.10
44537;DHT22;30245;51.966;6.292;2023-09-19T08:21:23;21.00;57.10
44537;DHT22;30245;51.966;6.292;2023-09-19T08:23:50;21.20;57.00
44537;DHT22;30245;51.966;6.292;2023-09-19T08:26:15;21.30;56.80
44537;DHT22;30245;51.966;6.292;2023-09-19T08:28:41;21.30;56.60
44537;DHT22;30245;51.966;6.292;2023-09-19T08:31:08;21.30;56.20
44537;DHT22;30245;51.966;6.292;2023-09-19T08:33:37;21.40;56.90
44537;DHT22;30245;51.966;6.292;2023-09-19T08:36:03;21.50;56.10
44537;DHT22;30245;51.966;6.292;2023-09-19T08:38:34;21.50;56.20
44537;DHT22;30245;51.966;6.292;2023-09-19T08:41:00;21.50;56.10
44537;DHT22;30245;51.966;6.292;2023-09-19T08:43:30;21.50;56.00
44537;DHT22;30245;51.966;6.292;2023-09-19T08:46:10;21.60;56.00
44537;DHT22;30245;51.966;6.292;2023-09-19T08:48:42;21.60;55.90
44537;DHT22;30245;51.966;6.292;2023-09-19T08:51:16;21.70;55.90
44537;DHT22;30245;51.966;6.292;2023-09-19T08:54:03;21.80;55.50
44537;DHT22;30245;51.966;6.292;2023-09-19T08:56:30;21.90;55.70
44537;DHT22;30245;51.966;6.292;2023-09-19T08:59:02;22.00;55.60
44537;DHT22;30245;51.966;6.292;2023-09-19T09:01:28;22.10;55.30
44537;DHT22;30245;51.966;6.292;2023-09-19T09:03:55;22.10;55.10
44537;DHT22;30245;51.966;6.292;2023-09-19T09:06:23;22.10;55.20
44537;DHT22;30245;51.966;6.292;2023-09-19T09:08:50;22.10;55.00
44537;DHT22;30245;51.966;6.292;2023-09-19T09:11:16;22.20;55.00
44537;DHT22;30245;51.966;6.292;2023-09-19T09:13:44;22.10;54.90
44537;DHT22;30245;51.966;6.292;2023-09-19T09:16:10;22.30;55.00
44537;DHT22;30245;51.966;6.292;2023-09-19T09:18:36;22.60;54.40
44537;DHT22;30245;51.966;6.292;2023-09-19T09:21:02;22.70;54.00
44537;DHT22;30245;51.966;6.292;2023-09-19T09:23:30;22.70;53.50
44537;DHT22;30245;51.966;6.292;2023-09-19T09:25:58;22.90;53.40
44537;DHT22;30245;51.966;6.292;2023-09-19T09:28:27;23.20;52.90
44537;DHT22;30245;51.966;6.292;2023-09-19T09:30:54;23.50;52.40
44537;DHT22;30245;51.966;6.292;2023-09-19T09:33:20;23.70;51.30
44537;DHT22;30245;51.966;6.292;2023-09-19T09:35:54;23.80;50.70
44537;DHT22;30245;51.966;6.292;2023-09-19T09:38:25;24.00;50.50
44537;DHT22;30245;51.966;6.292;2023-09-19T09:40:54;24.00;50.20
44537;DHT22;30245;51.966;6.292;2023-09-19T09:43:35;24.00;49.90
44537;DHT22;30245;51.966;6.292;2023-09-19T09:46:12;24.20;49.40
44537;DHT22;30245;51.966;6.292;2023-09-19T09:49:06;24.40;49.50
44537;DHT22;30245;51.966;6.292;2023-09-19T09:52:04;24.80;48.90
44537;DHT22;30245;51.966;6.292;2023-09-19T09:55:01;25.00;48.10
44537;DHT22;30245;51.966;6.292;2023-09-19T09:57:30;25.40;47.40
44537;DHT22;30245;51.966;6.292;2023-09-19T09:59:59;25.80;47.70
44537;DHT22;30245;51.966;6.292;2023-09-19T10:02:54;25.90;46.20
44537;DHT22;30245;51.966;6.292;2023-09-19T10:05:20;26.00;46.20
44537;DHT22;30245;51.966;6.292;2023-09-19T10:07:52;26.00;45.70
44537;DHT22;30245;51.966;6.292;2023-09-19T10:10:30;25.90;45.20
44537;DHT22;30245;51.966;6.292;2023-09-19T10:13:05;25.80;45.40
44537;DHT22;30245;51.966;6.292;2023-09-19T10:15:33;25.80;45.60
44537;DHT22;30245;51.966;6.292;2023-09-19T10:18:04;25.90;45.20
44537;DHT22;30245;51.966;6.292;2023-09-19T10:20:31;26.10;45.10
44537;DHT22;30245;51.966;6.292;2023-09-19T10:23:09;26.20;44.90
44537;DHT22;30245;51.966;6.292;2023-09-19T10:25:39;26.50;44.30
44537;DHT22;30245;51.966;6.292;2023-09-19T10:28:07;26.40;44.40
44537;DHT22;30245;51.966;6.292;2023-09-19T10:30:46;26.20;44.20
44537;DHT22;30245;51.966;6.292;2023-09-19T10:33:20;26.20;44.40
44537;DHT22;30245;51.966;6.292;2023-09-19T10:35:49;26.40;44.10
44537;DHT22;30245;51.966;6.292;2023-09-19T10:38:26;26.30;43.80
44537;DHT22;30245;51.966;6.292;2023-09-19T10:40:56;26.10;43.60
44537;DHT22;30245;51.966;6.292;2023-09-19T10:43:32;26.10;43.60
44537;DHT22;30245;51.966;6.292;2023-09-19T10:46:03;26.10;43.70
44537;DHT22;30245;51.966;6.292;2023-09-19T10:48:31;26.10;43.70
44537;DHT22;30245;51.966;6.292;2023-09-19T10:51:06;25.80;42.90
44537;DHT22;30245;51.966;6.292;2023-09-19T10:53:43;25.60;43.70
44537;DHT22;30245;51.966;6.292;2023-09-19T10:56:11;25.70;44.20
44537;DHT22;30245;51.966;6.292;2023-09-19T10:58:43;25.60;44.30
44537;DHT22;30245;51.966;6.292;2023-09-19T11:01:11;25.50;44.20
44537;DHT22;30245;51.966;6.292;2023-09-19T11:03:44;25.50;44.50
44537;DHT22;30245;51.966;6.292;2023-09-19T11:06:16;25.40;44.80
44537;DHT22;30245;51.966;6.292;2023-09-19T11:08:52;25.50;44.90
44537;DHT22;30245;51.966;6.292;2023-09-19T11:30:31;25.80;44.10
44537;DHT22;30245;51.966;6.292;2023-09-19T11:43:49;25.40;44.40
44537;DHT22;30245;51.966;6.292;2023-09-19T11:46:21;25.50;44.50
44537;DHT22;30245;51.966;6.292;2023-09-19T11:48:50;25.60;44.30
44537;DHT22;30245;51.966;6.292;2023-09-19T11:51:20;25.70;44.00
44537;DHT22;30245;51.966;6.292;2023-09-19T11:53:52;25.80;44.00
44537;DHT22;30245;51.966;6.292;2023-09-19T11:56:20;25.90;44.10
44537;DHT22;30245;51.966;6.292;2023-09-19T11:58:49;25.90;44.10
44537;DHT22;30245;51.966;6.292;2023-09-19T12:01:38;25.80;44.10
44537;DHT22;30245;51.966;6.292;2023-09-19T12:04:11;25.70;44.80
44537;DHT22;30245;51.966;6.292;2023-09-19T12:06:37;25.70;44.30
44537;DHT22;30245;51.966;6.292;2023-09-19T12:09:12;25.70;44.30
44537;DHT22;30245;51.966;6.292;2023-09-19T12:11:43;25.70;44.20
44537;DHT22;30245;51.966;6.292;2023-09-19T12:14:20;25.80;43.90
44537;DHT22;30245;51.966;6.292;2023-09-19T12:16:54;25.80;43.60
44537;DHT22;30245;51.966;6.292;2023-09-19T12:19:21;25.80;43.50
44537;DHT22;30245;51.966;6.292;2023-09-19T12:22:02;25.80;43.70
44537;DHT22;30245;51.966;6.292;2023-09-19T12:24:32;25.80;43.60
44537;DHT22;30245;51.966;6.292;2023-09-19T12:27:06;25.80;43.70
44537;DHT22;30245;51.966;6.292;2023-09-19T12:29:45;25.90;43.60
44537;DHT22;30245;51.966;6.292;2023-09-19T12:32:11;25.90;43.40
44537;DHT22;30245;51.966;6.292;2023-09-19T12:34:37;25.90;43.40
44537;DHT22;30245;51.966;6.292;2023-09-19T12:37:14;25.80;43.50
44537;DHT22;30245;51.966;6.292;2023-09-19T12:39:49;25.80;43.30
44537;DHT22;30245;51.966;6.292;2023-09-19T12:42:18;25.90;43.50
44537;DHT22;30245;51.966;6.292;2023-09-19T12:44:45;26.00;43.70
44537;DHT22;30245;51.966;6.292;2023-09-19T12:47:16;26.10;43.20
44537;DHT22;30245;51.966;6.292;2023-09-19T12:50:14;26.20;43.10
44537;DHT22;30245;51.966;6.292;2023-09-19T12:53:00;26.40;43.20
44537;DHT22;30245;51.966;6.292;2023-09-19T12:55:28;26.50;42.80
44537;DHT22;30245;51.966;6.292;2023-09-19T13:00:40;26.50;42.30
44537;DHT22;30245;51.966;6.292;2023-09-19T13:03:25;26.30;42.30
44537;DHT22;30245;51.966;6.292;2023-09-19T13:05:53;26.10;42.60
44537;DHT22;30245;51.966;6.292;2023-09-19T13:08:24;26.10;42.60
44537;DHT22;30245;51.966;6.292;2023-09-19T13:16:30;25.60;42.90
44537;DHT22;30245;51.966;6.292;2023-09-19T13:18:56;25.60;43.40
44537;DHT22;30245;51.966;6.292;2023-09-19T13:21:31;25.50;43.70
44537;DHT22;30245;51.966;6.292;2023-09-19T13:24:24;25.60;43.70
44537;DHT22;30245;51.966;6.292;2023-09-19T13:26:55;25.50;43.70
44537;DHT22;30245;51.966;6.292;2023-09-19T13:29:21;25.50;43.70
44537;DHT22;30245;51.966;6.292;2023-09-19T13:31:51;25.50;43.90
44537;DHT22;30245;51.966;6.292;2023-09-19T13:34:18;25.40;43.70
44537;DHT22;30245;51.966;6.292;2023-09-19T13:36:45;25.30;43.90
44537;DHT22;30245;51.966;6.292;2023-09-19T13:39:12;25.20;44.10
44537;DHT22;30245;51.966;6.292;2023-09-19T13:41:42;25.10;44.20
44537;DHT22;30245;51.966;6.292;2023-09-19T13:44:09;25.10;44.50
44537;DHT22;30245;51.966;6.292;2023-09-19T13:46:38;25.00;44.70
44537;DHT22;30245;51.966;6.292;2023-09-19T13:49:04;25.00;44.90
44537;DHT22;30245;51.966;6.292;2023-09-19T13:51:31;24.90;44.90
44537;DHT22;30245;51.966;6.292;2023-09-19T13:53:57;24.90;45.00
44537;DHT22;30245;51.966;6.292;2023-09-19T13:56:22;25.10;45.10
44537;DHT22;30245;51.966;6.292;2023-09-19T13:58:49;25.30;44.60
44537;DHT22;30245;51.966;6.292;2023-09-19T14:01:15;25.40;44.50
44537;DHT22;30245;51.966;6.292;2023-09-19T14:03:41;25.50;44.50
44537;DHT22;30245;51.966;6.292;2023-09-19T14:06:12;25.40;44.50
44537;DHT22;30245;51.966;6.292;2023-09-19T14:08:37;25.30;44.70
44537;DHT22;30245;51.966;6.292;2023-09-19T14:11:07;25.30;45.50
44537;DHT22;30245;51.966;6.292;2023-09-19T14:13:33;25.20;45.00
44537;DHT22;30245;51.966;6.292;2023-09-19T14:16:04;25.20;45.10
44537;DHT22;30245;51.966;6.292;2023-09-19T14:18:30;25.10;45.00
44537;DHT22;30245;51.966;6.292;2023-09-19T14:20:56;25.10;45.10
44537;DHT22;30245;51.966;6.292;2023-09-19T14:23:22;25.10;45.30
44537;DHT22;30245;51.966;6.292;2023-09-19T14:25:50;25.10;45.40
44537;DHT22;30245;51.966;6.292;2023-09-19T14:28:15;25.30;45.50
44537;DHT22;30245;51.966;6.292;2023-09-19T14:30:41;25.60;45.00
44537;DHT22;30245;51.966;6.292;2023-09-19T14:33:06;25.60;44.80
44537;DHT22;30245;51.966;6.292;2023-09-19T14:35:32;25.60;44.60
44537;DHT22;30245;51.966;6.292;2023-09-19T14:37:58;25.60;44.90
44537;DHT22;30245;51.966;6.292;2023-09-19T14:40:23;25.60;44.60
44537;DHT22;30245;51.966;6.292;2023-09-19T14:42:50;25.70;44.70
44537;DHT22;30245;51.966;6.292;2023-09-19T14:45:16;25.80;44.50
44537;DHT22;30245;51.966;6.292;2023-09-19T14:47:45;25.80;44.30
44537;DHT22;30245;51.966;6.292;2023-09-19T14:50:11;25.60;44.30
44537;DHT22;30245;51.966;6.292;2023-09-19T14:52:38;25.50;44.80
44537;DHT22;30245;51.966;6.292;2023-09-19T14:55:06;25.50;44.90
44537;DHT22;30245;51.966;6.292;2023-09-19T14:57:31;25.30;44.90
44537;DHT22;30245;51.966;6.292;2023-09-19T14:59:58;25.30;45.20
44537;DHT22;30245;51.966;6.292;2023-09-19T15:02:24;25.30;45.10
44537;DHT22;30245;51.966;6.292;2023-09-19T15:04:52;25.10;45.30
44537;DHT22;30245;51.966;6.292;2023-09-19T15:07:18;25.10;45.60
44537;DHT22;30245;51.966;6.292;2023-09-19T15:09:43;25.10;45.50
44537;DHT22;30245;51.966;6.292;2023-09-19T15:12:09;25.10;45.60
44537;DHT22;30245;51.966;6.292;2023-09-19T15:14:40;25.10;45.80
44537;DHT22;30245;51.966;6.292;2023-09-19T15:17:07;25.10;45.60
44537;DHT22;30245;51.966;6.292;2023-09-19T15:19:32;25.10;45.50
44537;DHT22;30245;51.966;6.292;2023-09-19T15:21:58;25.00;45.50
44537;DHT22;30245;51.966;6.292;2023-09-19T15:24:24;24.90;45.80
44537;DHT22;30245;51.966;6.292;2023-09-19T15:26:50;24.70;46.00
44537;DHT22;30245;51.966;6.292;2023-09-19T15:29:16;24.70;46.10
44537;DHT22;30245;51.966;6.292;2023-09-19T15:31:42;24.70;46.10
44537;DHT22;30245;51.966;6.292;2023-09-19T15:34:07;24.70;46.20
44537;DHT22;30245;51.966;6.292;2023-09-19T15:36:33;24.60;46.60
44537;DHT22;30245;51.966;6.292;2023-09-19T15:39:06;24.50;46.80
44537;DHT22;30245;51.966;6.292;2023-09-19T15:41:34;24.40;47.00
44537;DHT22;30245;51.966;6.292;2023-09-19T15:44:01;24.40;47.10
44537;DHT22;30245;51.966;6.292;2023-09-19T15:46:29;24.50;47.10
44537;DHT22;30245;51.966;6.292;2023-09-19T15:48:55;24.60;46.90
44537;DHT22;30245;51.966;6.292;2023-09-19T15:51:20;24.60;46.80
44537;DHT22;30245;51.966;6.292;2023-09-19T15:53:48;24.50;47.00
44537;DHT22;30245;51.966;6.292;2023-09-19T15:56:18;24.50;47.30
44537;DHT22;30245;51.966;6.292;2023-09-19T15:58:44;24.50;47.30
44537;DHT22;30245;51.966;6.292;2023-09-19T16:01:11;24.50;47.40
44537;DHT22;30245;51.966;6.292;2023-09-19T16:03:56;24.40;47.60
44537;DHT22;30245;51.966;6.292;2023-09-19T16:06:27;24.30;47.80
44537;DHT22;30245;51.966;6.292;2023-09-19T16:08:55;24.30;47.80
44537;DHT22;30245;51.966;6.292;2023-09-19T16:11:23;24.30;47.90
44537;DHT22;30245;51.966;6.292;2023-09-19T16:13:50;24.30;48.00
44537;DHT22;30245;51.966;6.292;2023-09-19T16:16:16;24.30;48.00
44537;DHT22;30245;51.966;6.292;2023-09-19T16:18:46;24.30;48.10
44537;DHT22;30245;51.966;6.292;2023-09-19T16:21:13;24.20;48.30
44537;DHT22;30245;51.966;6.292;2023-09-19T16:23:38;24.20;48.40
44537;DHT22;30245;51.966;6.292;2023-09-19T16:26:06;24.10;48.50
44537;DHT22;30245;51.966;6.292;2023-09-19T16:28:39;24.10;48.50
44537;DHT22;30245;51.966;6.292;2023-09-19T16:31:05;24.10;48.60